Time;durP1;ratioP1;P1;durP2;ratioP2;P2;SDS_P1;SDS_P2;PMS_P1;PMS_P2;Temp;Humidity;BMP_temperature;BMP_pressure;BME280_temperature;BME280_humidity;BME280_pressure;Samples;Min_cycle;Max_cycle;Signal;HPM_P1;HPM_P2
2022/04/30 00:01:26;;;;;;;5.90;3.63;;;20.70;57.40;;;;;;4975989;28;20220;-70
2022/04/30 00:03:52;;;;;;;5.00;3.08;;;20.80;57.40;;;;;;4975570;28;20186;-68
2022/04/30 00:06:19;;;;;;;5.35;2.97;;;20.70;57.40;;;;;;4975703;28;20216;-70
2022/04/30 00:08:45;;;;;;;4.97;3.38;;;20.70;57.40;;;;;;4975798;28;20213;-69
2022/04/30 00:11:13;;;;;;;3.65;3.13;;;20.70;57.40;;;;;;4976042;28;20216;-69
2022/04/30 00:13:38;;;;;;;3.83;2.78;;;20.70;57.30;;;;;;4975837;28;20189;-69
2022/04/30 00:16:04;;;;;;;3.28;2.97;;;20.70;57.30;;;;;;4975533;28;20189;-70
2022/04/30 00:18:30;;;;;;;4.07;3.05;;;20.70;57.30;;;;;;4975693;28;20276;-70
2022/04/30 00:20:58;;;;;;;5.05;3.72;;;20.80;57.40;;;;;;4975915;28;20217;-70
2022/04/30 00:23:24;;;;;;;3.70;3.28;;;20.70;57.30;;;;;;4975891;28;20194;-70
2022/04/30 00:25:55;;;;;;;6.10;4.28;;;20.70;57.30;;;;;;4977361;28;20308;-70
2022/04/30 00:28:25;;;;;;;5.63;4.10;;;20.70;57.30;;;;;;4959376;28;20192;-70
2022/04/30 00:30:51;;;;;;;4.50;4.07;;;20.70;57.30;;;;;;4991641;28;20237;-69
2022/04/30 00:33:18;;;;;;;4.25;3.85;;;20.70;57.30;;;;;;4959216;28;20174;-70
2022/04/30 00:35:44;;;;;;;5.25;4.30;;;20.70;57.30;;;;;;4975160;28;20193;-70
2022/04/30 00:38:10;;;;;;;5.68;3.88;;;20.70;57.30;;;;;;4975583;28;20184;-70
2022/04/30 00:40:36;;;;;;;3.80;3.33;;;20.70;57.30;;;;;;4975220;28;20233;-70
2022/04/30 00:43:03;;;;;;;4.40;3.10;;;20.70;57.30;;;;;;4975290;28;20200;-70
2022/04/30 00:45:29;;;;;;;4.43;3.25;;;20.70;57.90;;;;;;4974737;28;20188;-70
2022/04/30 00:47:55;;;;;;;5.63;3.28;;;20.70;57.30;;;;;;4973079;28;20189;-70
2022/04/30 00:50:25;;;;;;;3.30;3.00;;;20.70;57.30;;;;;;4975063;28;20210;-70
2022/04/30 00:52:56;;;;;;;5.22;3.22;;;20.70;57.30;;;;;;4975243;28;20178;-70
2022/04/30 00:55:29;;;;;;;4.28;2.80;;;20.70;57.30;;;;;;4974727;28;20186;-70
2022/04/30 00:58:04;;;;;;;4.53;2.90;;;20.70;57.30;;;;;;4974996;28;20205;-70
2022/04/30 01:00:30;;;;;;;3.65;2.80;;;20.70;57.30;;;;;;4975152;28;20267;-70
2022/04/30 01:03:06;;;;;;;6.30;4.05;;;20.70;57.30;;;;;;4960366;28;20268;-70
2022/04/30 01:05:34;;;;;;;4.00;3.70;;;20.70;57.30;;;;;;4974973;28;20229;-69
2022/04/30 01:07:59;;;;;;;4.43;4.03;;;20.70;57.30;;;;;;4958660;28;20245;-70
2022/04/30 01:10:26;;;;;;;4.90;3.92;;;20.70;57.30;;;;;;4958745;28;20682;-70
2022/04/30 01:12:53;;;;;;;4.63;4.22;;;20.70;57.30;;;;;;4990898;28;20198;-70
2022/04/30 01:15:19;;;;;;;7.35;4.18;;;20.70;57.30;;;;;;4958463;28;20197;-70
2022/04/30 01:17:45;;;;;;;5.45;4.30;;;20.70;57.30;;;;;;4958189;28;20284;-70
2022/04/30 01:20:12;;;;;;;6.97;3.80;;;20.70;57.30;;;;;;4977166;28;20242;-69
2022/04/30 01:23:03;;;;;;;4.78;3.72;;;20.70;57.30;;;;;;4971313;28;20193;-70
2022/04/30 01:25:33;;;;;;;3.50;2.63;;;20.70;57.30;;;;;;4939265;29;20278;-69
2022/04/30 01:28:00;;;;;;;3.10;2.80;;;20.60;57.20;;;;;;4955169;29;20273;-70
2022/04/30 01:30:26;;;;;;;3.50;3.13;;;20.60;57.20;;;;;;4987150;28;20237;-70
2022/04/30 01:38:21;;;;;;;3.97;3.63;;;20.60;57.20;;;;;;4971271;28;20225;-70
2022/04/30 01:40:47;;;;;;;4.25;3.85;;;20.70;57.30;;;;;;4987154;28;20186;-70
2022/04/30 01:43:15;;;;;;;5.00;4.07;;;20.60;57.20;;;;;;4987305;28;20667;-70
2022/04/30 01:45:44;;;;;;;4.30;3.90;;;20.60;57.20;;;;;;4970604;28;20236;-70
2022/04/30 01:48:14;;;;;;;3.95;3.50;;;20.60;57.20;;;;;;4973849;28;20181;-69
2022/04/30 01:50:43;;;;;;;3.92;3.55;;;20.60;57.20;;;;;;4973913;28;20190;-70
2022/04/30 01:53:09;;;;;;;3.95;3.20;;;20.60;57.20;;;;;;4973961;28;20189;-70
2022/04/30 01:55:37;;;;;;;3.70;3.40;;;20.60;57.20;;;;;;4973766;28;20254;-70
2022/04/30 01:58:08;;;;;;;4.32;3.35;;;20.60;57.20;;;;;;4973862;28;20178;-70
2022/04/30 02:00:34;;;;;;;3.92;2.97;;;20.60;57.20;;;;;;4975079;28;20209;-70
2022/04/30 02:03:08;;;;;;;2.80;2.60;;;20.60;57.10;;;;;;4973682;28;20236;-70
2022/04/30 02:05:39;;;;;;;3.28;2.95;;;20.60;57.80;;;;;;4972889;28;20208;-70
2022/04/30 02:08:09;;;;;;;3.20;2.90;;;20.60;57.20;;;;;;4975164;28;20268;-70
2022/04/30 02:10:38;;;;;;;4.07;3.13;;;20.60;57.20;;;;;;4974759;28;20240;-70
2022/04/30 02:13:09;;;;;;;3.45;3.15;;;20.60;57.20;;;;;;4968636;28;20185;-70
2022/04/30 02:15:39;;;;;;;3.08;2.72;;;20.60;57.20;;;;;;4973243;28;20189;-70
2022/04/30 02:18:09;;;;;;;4.50;3.47;;;20.60;57.20;;;;;;4968343;28;20205;-70
2022/04/30 02:20:55;;;;;;;4.32;3.85;;;20.60;57.20;;;;;;4957423;28;20213;-70
2022/04/30 02:23:22;;;;;;;3.63;3.33;;;20.60;57.20;;;;;;4968069;28;20204;-70
2022/04/30 02:25:51;;;;;;;3.60;3.25;;;20.60;57.10;;;;;;4972913;28;20268;-69
2022/04/30 02:28:17;;;;;;;3.13;2.92;;;20.60;57.20;;;;;;4973443;28;20192;-69
2022/04/30 02:30:43;;;;;;;2.88;2.63;;;20.60;57.20;;;;;;4973276;28;20181;-69
2022/04/30 02:33:11;;;;;;;3.08;2.80;;;20.60;57.20;;;;;;4973475;28;20186;-70
2022/04/30 02:35:44;;;;;;;3.40;3.10;;;20.60;57.20;;;;;;4957014;28;20344;-70
2022/04/30 02:38:11;;;;;;;3.20;2.90;;;20.60;57.20;;;;;;4973218;28;20188;-70
2022/04/30 02:40:40;;;;;;;3.08;2.78;;;20.60;57.40;;;;;;4974590;28;20204;-70
2022/04/30 02:43:10;;;;;;;3.05;2.78;;;20.60;57.10;;;;;;4972942;28;20200;-70
2022/04/30 02:45:38;;;;;;;3.42;3.05;;;20.60;57.20;;;;;;4972942;28;20685;-70
2022/04/30 02:48:07;;;;;;;3.25;2.83;;;20.60;57.10;;;;;;4989132;28;20185;-70
2022/04/30 02:50:34;;;;;;;3.38;3.08;;;20.60;57.20;;;;;;4972784;28;20207;-70
2022/04/30 02:53:01;;;;;;;3.60;3.30;;;20.60;57.10;;;;;;4972895;28;20182;-70
2022/04/30 02:55:26;;;;;;;3.30;3.00;;;20.60;57.10;;;;;;4972705;28;20182;-70
2022/04/30 03:00:41;;;;;;;3.70;3.40;;;20.60;57.10;;;;;;4988912;28;20189;-70
2022/04/30 03:03:29;;;;;;;2.90;2.70;;;20.60;57.10;;;;;;4973947;28;20244;-69
2022/04/30 03:05:56;;;;;;;3.03;2.75;;;20.60;57.10;;;;;;4973758;28;20217;-70
2022/04/30 03:08:25;;;;;;;3.20;2.90;;;20.60;57.10;;;;;;4973008;28;20178;-70
2022/04/30 03:10:55;;;;;;;3.25;2.95;;;20.60;57.20;;;;;;4972665;28;20189;-70
2022/04/30 03:13:22;;;;;;;3.60;2.95;;;20.60;57.10;;;;;;4972865;28;20185;-70
2022/04/30 03:15:51;;;;;;;3.50;3.08;;;20.60;57.20;;;;;;4972752;28;20272;-69
2022/04/30 03:23:37;;;;;;;3.60;3.30;;;20.60;58.60;;;;;;4988501;28;20715;-70
2022/04/30 03:26:12;;;;;;;3.28;3.00;;;20.50;57.10;;;;;;4972320;28;20213;-70
2022/04/30 03:28:41;;;;;;;3.65;3.35;;;20.50;57.30;;;;;;4988824;28;20311;-70
2022/04/30 03:31:10;;;;;;;3.83;3.47;;;20.50;57.10;;;;;;4972674;28;20213;-70
2022/04/30 03:33:37;;;;;;;3.95;2.83;;;20.60;57.10;;;;;;4971746;28;20193;-70
2022/04/30 03:36:03;;;;;;;3.22;2.92;;;20.60;57.50;;;;;;4973384;28;20244;-70
2022/04/30 03:38:29;;;;;;;3.03;2.72;;;20.50;57.10;;;;;;4972121;28;20240;-70
2022/04/30 03:40:57;;;;;;;3.65;2.88;;;20.50;57.10;;;;;;4972498;28;20189;-70
2022/04/30 03:43:22;;;;;;;2.92;2.58;;;20.50;57.10;;;;;;4973579;28;20189;-71
2022/04/30 03:45:49;;;;;;;3.10;2.40;;;20.60;57.10;;;;;;4972306;28;20206;-70
2022/04/30 03:48:15;;;;;;;3.13;2.80;;;20.50;57.10;;;;;;4988912;28;20240;-70
2022/04/30 03:50:44;;;;;;;3.35;2.88;;;20.50;57.10;;;;;;4972268;28;20181;-70
2022/04/30 03:53:10;;;;;;;2.65;2.45;;;20.50;57.10;;;;;;4988326;28;20189;-70
2022/04/30 03:55:36;;;;;;;3.97;3.08;;;20.50;57.10;;;;;;4972222;28;20217;-70
2022/04/30 03:58:01;;;;;;;2.80;2.60;;;20.60;57.10;;;;;;4972101;28;20218;-70
2022/04/30 04:00:27;;;;;;;3.15;2.88;;;20.50;57.00;;;;;;4991720;23;20229;-69
2022/04/30 04:02:56;;;;;;;3.35;3.05;;;20.50;57.00;;;;;;4984631;28;20214;-69
2022/04/30 04:05:22;;;;;;;3.28;3.08;;;20.50;57.10;;;;;;5007228;28;20191;-69
2022/04/30 04:07:48;;;;;;;3.70;3.40;;;20.50;57.10;;;;;;4991720;28;20216;-68
2022/04/30 04:10:14;;;;;;;4.10;3.80;;;20.50;57.10;;;;;;4987912;28;20648;-69
2022/04/30 04:12:43;;;;;;;3.95;3.63;;;20.50;57.10;;;;;;4972016;28;20293;-69
2022/04/30 04:17:55;;;;;;;3.25;3.00;;;20.50;57.00;;;;;;4971873;28;20277;-69
2022/04/30 04:20:25;;;;;;;3.28;2.97;;;20.50;57.00;;;;;;4973189;28;20229;-69
2022/04/30 04:22:55;;;;;;;3.05;2.83;;;20.50;57.10;;;;;;4971991;28;20190;-68
2022/04/30 04:28:06;;;;;;;2.70;2.50;;;20.50;57.10;;;;;;4973380;28;20200;-69
2022/04/30 04:30:33;;;;;;;2.92;2.72;;;20.50;57.10;;;;;;4958812;28;20208;-68
2022/04/30 04:33:00;;;;;;;2.88;2.67;;;20.50;57.60;;;;;;4975055;28;20186;-68
2022/04/30 04:35:27;;;;;;;3.15;2.88;;;20.60;57.10;;;;;;4974932;28;20185;-69
2022/04/30 04:37:53;;;;;;;3.03;2.75;;;20.50;57.00;;;;;;4976064;28;20178;-68
2022/04/30 04:40:20;;;;;;;3.60;3.30;;;20.50;57.00;;;;;;4991001;28;20209;-69
2022/04/30 04:42:47;;;;;;;5.72;4.18;;;20.50;57.10;;;;;;4976126;28;20208;-68
2022/04/30 04:45:13;;;;;;;6.57;4.10;;;20.50;57.10;;;;;;4958991;28;20181;-68
2022/04/30 04:47:42;;;;;;;5.00;3.83;;;20.50;57.10;;;;;;4975183;28;20217;-68
2022/04/30 04:50:12;;;;;;;6.13;4.78;;;20.50;57.10;;;;;;4959297;28;20217;-68
2022/04/30 04:52:40;;;;;;;5.30;4.80;;;20.50;57.10;;;;;;4958865;28;20329;-69
2022/04/30 04:55:06;;;;;;;6.10;4.32;;;20.60;57.20;;;;;;4975065;28;20182;-70
2022/04/30 04:57:32;;;;;;;5.72;3.90;;;20.50;57.20;;;;;;4974491;28;20190;-69
2022/04/30 04:59:58;;;;;;;5.32;3.67;;;20.50;57.30;;;;;;4974885;28;20228;-70
2022/04/30 05:02:24;;;;;;;6.93;3.13;;;20.50;57.40;;;;;;4974994;28;20190;-70
2022/04/30 05:04:49;;;;;;;6.05;3.30;;;20.50;57.40;;;;;;4958764;28;20197;-70
2022/04/30 05:07:15;;;;;;;6.30;3.25;;;20.60;57.70;;;;;;4958245;28;20225;-69
2022/04/30 05:09:41;;;;;;;6.28;3.88;;;20.50;57.70;;;;;;4987972;28;20210;-70
2022/04/30 05:12:08;;;;;;;5.28;3.17;;;20.60;58.40;;;;;;4991001;28;20272;-69
2022/04/30 05:14:34;;;;;;;7.65;3.28;;;20.40;56.70;;;;;;4974331;28;20185;-71
2022/04/30 05:17:03;;;;;;;5.35;4.40;;;20.40;57.50;;;;;;4958572;28;20205;-69
2022/04/30 05:19:29;;;;;;;5.05;4.55;;;20.30;56.90;;;;;;4975813;28;20198;-69
2022/04/30 05:21:55;;;;;;;10.70;5.10;;;20.30;57.50;;;;;;4958767;28;20189;-69
2022/04/30 05:24:21;;;;;;;9.20;4.85;;;20.40;57.50;;;;;;4958421;28;20193;-69
2022/04/30 05:26:47;;;;;;;9.00;4.75;;;20.40;57.30;;;;;;4958317;28;20244;-69
2022/04/30 05:29:14;;;;;;;8.05;4.90;;;20.40;57.20;;;;;;4958484;28;20580;-69
2022/04/30 05:31:40;;;;;;;6.47;5.22;;;20.40;57.10;;;;;;4974274;28;20194;-69
2022/04/30 05:34:06;;;;;;;10.45;5.93;;;20.40;57.10;;;;;;4974258;28;20189;-69
2022/04/30 05:36:32;;;;;;;7.53;5.80;;;20.40;57.10;;;;;;4974402;28;20213;-69
2022/04/30 05:38:59;;;;;;;7.57;5.20;;;20.50;57.10;;;;;;4958044;28;20194;-69
2022/04/30 05:41:25;;;;;;;10.70;6.55;;;20.50;57.10;;;;;;4974120;28;20272;-69
2022/04/30 05:43:51;;;;;;;8.45;6.13;;;20.50;57.10;;;;;;4990334;28;20189;-69
2022/04/30 05:46:17;;;;;;;8.48;5.70;;;20.50;57.10;;;;;;4957815;28;20220;-69
2022/04/30 05:48:42;;;;;;;8.40;5.60;;;20.50;57.10;;;;;;4974331;28;20182;-69
2022/04/30 05:51:08;;;;;;;7.38;5.82;;;20.50;57.10;;;;;;4957837;28;20206;-69
2022/04/30 05:53:34;;;;;;;5.93;5.30;;;20.50;57.20;;;;;;4990186;28;20201;-69
2022/04/30 05:56:00;;;;;;;6.45;4.53;;;20.50;57.30;;;;;;4973825;28;20197;-69
2022/04/30 05:58:26;;;;;;;4.95;4.22;;;20.50;57.30;;;;;;4957948;28;20194;-69
2022/04/30 06:00:52;;;;;;;6.53;4.05;;;20.50;57.40;;;;;;4974037;28;20308;-69
2022/04/30 06:03:17;;;;;;;5.88;3.85;;;20.50;57.40;;;;;;4975050;28;20186;-69
2022/04/30 06:05:43;;;;;;;5.10;3.35;;;20.50;58.00;;;;;;4957362;28;20851;-69
2022/04/30 06:08:09;;;;;;;4.32;3.92;;;20.50;57.50;;;;;;4975000;28;20186;-69
2022/04/30 06:10:35;;;;;;;7.13;4.00;;;20.50;57.60;;;;;;4973568;28;20223;-68
2022/04/30 06:13:01;;;;;;;4.82;4.03;;;20.50;57.60;;;;;;4957559;28;20204;-68
2022/04/30 06:15:28;;;;;;;6.22;3.40;;;20.50;57.60;;;;;;4957607;28;20186;-69
2022/04/30 06:17:54;;;;;;;4.72;3.33;;;20.50;57.70;;;;;;4973528;28;20190;-68
2022/04/30 06:20:20;;;;;;;5.22;3.22;;;20.50;57.80;;;;;;4957565;28;20249;-69
2022/04/30 06:22:46;;;;;;;4.43;3.40;;;20.50;57.90;;;;;;4957609;28;20177;-69
2022/04/30 06:25:12;;;;;;;5.03;3.58;;;20.50;57.90;;;;;;4957043;28;20193;-69
2022/04/30 06:27:39;;;;;;;5.60;3.47;;;20.50;57.90;;;;;;4973386;28;20221;-69
2022/04/30 06:30:07;;;;;;;6.28;4.18;;;20.50;57.90;;;;;;4957081;28;20205;-69
2022/04/30 06:32:34;;;;;;;6.15;3.95;;;20.50;57.90;;;;;;4957343;28;20193;-69
2022/04/30 06:35:02;;;;;;;4.63;4.18;;;20.50;58.00;;;;;;4972977;28;20195;-69
2022/04/30 06:37:28;;;;;;;6.35;4.40;;;20.50;58.00;;;;;;4974343;28;20629;-69
2022/04/30 06:39:54;;;;;;;5.72;5.15;;;20.50;58.00;;;;;;4973028;28;20209;-69
2022/04/30 06:42:20;;;;;;;9.18;4.90;;;20.50;58.00;;;;;;4973217;28;20767;-69
2022/04/30 06:44:47;;;;;;;4.72;4.35;;;20.50;58.00;;;;;;4969556;28;20189;-69
2022/04/30 06:47:14;;;;;;;5.68;4.03;;;20.50;58.00;;;;;;4956777;28;20217;-69
2022/04/30 06:49:40;;;;;;;6.30;3.40;;;20.50;57.90;;;;;;4974106;28;20221;-69
2022/04/30 06:52:07;;;;;;;4.68;3.67;;;20.50;57.80;;;;;;4972480;28;20194;-69
2022/04/30 06:57:20;;;;;;;4.05;3.60;;;20.50;57.70;;;;;;4973248;28;20203;-70
2022/04/30 06:59:50;;;;;;;3.60;3.15;;;20.50;57.70;;;;;;4972661;28;20217;-69
2022/04/30 07:02:21;;;;;;;5.25;3.25;;;20.50;57.80;;;;;;4973019;28;20182;-69
2022/04/30 07:04:51;;;;;;;5.03;3.35;;;20.50;57.90;;;;;;4979644;28;20174;-70
2022/04/30 07:07:21;;;;;;;3.83;3.45;;;20.50;57.90;;;;;;5005514;28;20231;-69
2022/04/30 07:09:48;;;;;;;5.10;3.80;;;20.50;57.90;;;;;;4993165;28;20296;-69
2022/04/30 07:12:14;;;;;;;6.03;4.07;;;20.50;58.00;;;;;;4992138;28;20187;-69
2022/04/30 07:14:42;;;;;;;6.20;4.82;;;20.50;58.20;;;;;;4975596;28;20211;-69
2022/04/30 07:17:12;;;;;;;5.13;4.38;;;20.50;58.00;;;;;;4976019;28;20184;-69
2022/04/30 07:19:38;;;;;;;4.75;3.65;;;20.50;57.90;;;;;;5008205;28;20212;-69
2022/04/30 07:22:07;;;;;;;4.63;3.95;;;20.50;57.90;;;;;;4975665;28;20180;-69
2022/04/30 07:24:34;;;;;;;4.10;3.70;;;20.50;57.90;;;;;;4963258;28;20194;-69
2022/04/30 07:27:01;;;;;;;6.57;3.90;;;20.50;57.90;;;;;;4956287;28;20217;-69
2022/04/30 07:29:27;;;;;;;4.65;3.97;;;20.50;57.90;;;;;;4972585;28;20249;-69
2022/04/30 07:31:54;;;;;;;4.88;3.33;;;20.50;57.90;;;;;;4972454;28;20273;-69
2022/04/30 07:34:19;;;;;;;2.90;2.70;;;20.50;57.90;;;;;;4956163;28;20182;-69
2022/04/30 07:36:45;;;;;;;3.25;2.95;;;20.50;58.00;;;;;;4956083;28;20332;-69
2022/04/30 07:39:11;;;;;;;3.42;2.95;;;20.50;58.00;;;;;;4972194;28;20325;-69
2022/04/30 07:41:37;;;;;;;3.05;2.75;;;20.60;58.00;;;;;;4972150;28;20339;-69
2022/04/30 07:44:03;;;;;;;3.20;2.90;;;20.50;57.90;;;;;;4961400;28;20224;-68
2022/04/30 07:46:29;;;;;;;3.75;2.97;;;20.60;58.00;;;;;;4991382;28;20262;-69
2022/04/30 07:48:55;;;;;;;5.90;3.00;;;20.60;58.00;;;;;;5007825;28;20594;-69
2022/04/30 07:51:33;;;;;;;8.63;3.45;;;20.50;57.90;;;;;;4991571;28;20196;-69
2022/04/30 07:54:03;;;;;;;6.65;3.25;;;20.50;58.00;;;;;;4981191;28;20231;-69
2022/04/30 07:56:29;;;;;;;6.85;3.00;;;20.50;58.00;;;;;;4975486;28;20194;-69
2022/04/30 07:58:55;;;;;;;7.22;3.67;;;20.50;58.00;;;;;;4981854;28;20238;-69
2022/04/30 08:01:21;;;;;;;6.22;4.28;;;20.60;58.10;;;;;;4985115;28;20204;-69
2022/04/30 08:03:47;;;;;;;5.43;4.85;;;20.50;58.10;;;;;;4982573;28;20180;-69
2022/04/30 08:06:13;;;;;;;5.03;4.03;;;20.60;58.20;;;;;;4975816;28;20198;-69
2022/04/30 08:08:38;;;;;;;9.20;4.80;;;20.50;58.10;;;;;;4983477;28;20187;-69
2022/04/30 08:11:04;;;;;;;6.00;4.65;;;20.50;58.10;;;;;;4997848;28;20209;-69
2022/04/30 08:13:30;;;;;;;4.72;3.78;;;20.60;58.20;;;;;;4987621;28;20215;-69
2022/04/30 08:15:57;;;;;;;5.85;4.68;;;20.60;58.20;;;;;;4971751;28;20186;-69
2022/04/30 08:18:24;;;;;;;4.75;3.90;;;20.60;58.20;;;;;;4956608;28;20233;-69
2022/04/30 08:20:50;;;;;;;5.78;4.18;;;20.50;58.20;;;;;;4956255;28;20217;-69
2022/04/30 08:23:16;;;;;;;6.28;4.25;;;20.60;58.30;;;;;;4956315;28;20678;-69
2022/04/30 08:25:42;;;;;;;3.42;3.05;;;20.60;58.40;;;;;;4940167;29;20194;-69
2022/04/30 08:28:07;;;;;;;3.25;2.70;;;20.60;58.40;;;;;;4962452;28;20173;-69
2022/04/30 08:30:33;;;;;;;3.63;3.15;;;20.60;59.00;;;;;;4988968;28;20250;-69
2022/04/30 08:32:59;;;;;;;4.47;3.53;;;20.60;58.40;;;;;;4980574;28;20186;-69
2022/04/30 08:35:26;;;;;;;3.00;2.53;;;20.60;58.50;;;;;;4959041;28;20208;-69
2022/04/30 08:37:52;;;;;;;3.55;3.10;;;20.60;58.40;;;;;;4959089;28;20201;-69
2022/04/30 08:40:18;;;;;;;2.88;2.60;;;20.60;58.50;;;;;;4974818;28;20209;-69
2022/04/30 08:42:45;;;;;;;4.57;2.90;;;20.60;58.50;;;;;;4991627;28;20605;-69
2022/04/30 08:45:12;;;;;;;4.97;2.85;;;20.60;58.60;;;;;;4959166;28;20204;-69
2022/04/30 08:47:40;;;;;;;3.65;3.35;;;20.60;58.50;;;;;;4959030;28;20244;-69
2022/04/30 08:50:13;;;;;;;3.63;2.85;;;20.60;59.20;;;;;;4958936;28;20206;-71
2022/04/30 08:52:40;;;;;;;3.53;3.20;;;20.60;58.60;;;;;;4975381;28;20196;-71
2022/04/30 08:55:08;;;;;;;5.40;4.30;;;20.60;58.60;;;;;;4959022;28;20185;-72
2022/04/30 08:57:34;;;;;;;3.95;3.53;;;20.60;58.60;;;;;;4991116;28;20201;-72
2022/04/30 09:00:01;;;;;;;4.40;4.00;;;20.60;58.60;;;;;;4974780;28;20217;-72
2022/04/30 09:02:27;;;;;;;4.78;4.38;;;20.60;58.60;;;;;;4958719;28;20304;-72
2022/04/30 09:04:54;;;;;;;4.15;3.78;;;20.60;58.50;;;;;;4974564;28;20189;-72
2022/04/30 09:07:25;;;;;;;5.05;4.38;;;20.50;58.40;;;;;;4958605;28;20209;-72
2022/04/30 09:10:01;;;;;;;4.95;4.45;;;20.50;58.40;;;;;;4974526;28;20596;-72
2022/04/30 09:12:29;;;;;;;4.57;3.00;;;20.60;58.60;;;;;;4958705;28;20181;-72
2022/04/30 09:14:55;;;;;;;3.22;2.92;;;20.60;58.50;;;;;;4958087;28;20225;-72
2022/04/30 09:17:24;;;;;;;3.47;2.72;;;20.60;58.50;;;;;;4975748;28;20606;-72
2022/04/30 09:20:01;;;;;;;3.83;2.60;;;20.50;58.40;;;;;;4974522;28;20292;-72
2022/04/30 09:22:38;;;;;;;2.88;2.60;;;20.60;58.60;;;;;;4958787;28;20185;-72
2022/04/30 09:25:12;;;;;;;2.83;2.60;;;20.60;58.60;;;;;;4974613;28;20181;-72
2022/04/30 09:27:50;;;;;;;4.50;4.10;;;20.60;58.60;;;;;;4974408;28;20252;-72
2022/04/30 09:30:17;;;;;;;4.93;4.53;;;20.60;58.60;;;;;;4974347;28;20288;-72
2022/04/30 09:32:44;;;;;;;7.90;5.30;;;20.50;58.60;;;;;;4973861;28;20194;-72
2022/04/30 09:38:05;;;;;;;3.30;3.00;;;20.50;58.60;;;;;;4974220;28;20334;-72
2022/04/30 09:40:31;;;;;;;3.38;3.08;;;20.50;58.60;;;;;;4958025;28;20207;-71
2022/04/30 09:42:58;;;;;;;3.08;2.88;;;20.50;58.70;;;;;;4974233;28;20186;-72
2022/04/30 09:45:35;;;;;;;5.35;2.97;;;20.60;58.70;;;;;;4957842;28;20249;-72
2022/04/30 09:53:56;;;;;;;3.25;2.70;;;20.50;58.60;;;;;;4958012;28;20181;-72
2022/04/30 09:53:57;;;;;;;4.45;4.07;;;20.50;58.60;;;;;;4975149;28;20181;-72
2022/04/30 09:56:36;;;;;;;4.88;4.35;;;20.50;58.40;;;;;;4957947;28;20196;-72
2022/04/30 10:01:44;;;;;;;3.10;2.80;;;20.50;58.60;;;;;;4971500;28;20215;-67
2022/04/30 10:04:13;;;;;;;2.90;2.60;;;20.50;58.60;;;;;;4973625;28;20229;-69
2022/04/30 10:06:51;;;;;;;3.67;2.83;;;20.60;58.60;;;;;;4974647;28;20224;-69
2022/04/30 10:09:31;;;;;;;2.80;2.60;;;20.50;58.60;;;;;;4957539;28;20173;-69
2022/04/30 10:12:26;;;;;;;3.72;3.42;;;20.50;58.60;;;;;;4974890;28;20177;-69
2022/04/30 10:15:33;;;;;;;3.60;3.30;;;20.50;58.50;;;;;;4957601;28;20174;-69
2022/04/30 10:18:00;;;;;;;2.53;2.30;;;20.50;58.50;;;;;;4955521;29;20290;-69
2022/04/30 10:20:34;;;;;;;2.83;2.63;;;20.50;58.50;;;;;;4955316;29;20206;-70
2022/04/30 10:23:02;;;;;;;2.83;2.63;;;20.50;58.50;;;;;;4954386;29;20193;-70
2022/04/30 10:25:36;;;;;;;2.60;2.40;;;20.50;58.50;;;;;;4938147;28;20193;-70
2022/04/30 10:28:16;;;;;;;2.78;2.50;;;20.50;58.60;;;;;;4921651;29;20194;-70
2022/04/30 10:30:58;;;;;;;3.50;3.20;;;20.50;58.60;;;;;;4922124;29;20761;-70
2022/04/30 10:33:25;;;;;;;4.63;4.20;;;20.50;58.60;;;;;;4931959;28;20204;-69
2022/04/30 10:36:07;;;;;;;4.35;3.97;;;20.50;58.60;;;;;;4948885;28;20202;-70
2022/04/30 10:38:34;;;;;;;4.40;4.00;;;20.50;58.60;;;;;;4957027;28;20209;-69
2022/04/30 10:41:02;;;;;;;3.88;3.53;;;20.50;58.60;;;;;;4973921;28;20586;-70
2022/04/30 10:43:36;;;;;;;3.60;3.30;;;20.50;58.60;;;;;;4956978;28;20190;-70
2022/04/30 10:46:06;;;;;;;3.22;2.92;;;20.50;58.60;;;;;;4972712;28;20209;-70
2022/04/30 10:48:33;;;;;;;3.33;3.05;;;20.50;58.60;;;;;;4957019;28;20178;-70
2022/04/30 10:51:11;;;;;;;4.32;2.50;;;20.50;58.50;;;;;;4957050;28;20201;-70
2022/04/30 10:53:43;;;;;;;3.03;2.72;;;20.50;58.50;;;;;;4957129;28;20182;-70
2022/04/30 10:56:11;;;;;;;2.80;2.60;;;20.50;58.60;;;;;;4940977;28;20186;-70
2022/04/30 10:58:39;;;;;;;3.50;3.20;;;20.50;58.70;;;;;;4974065;28;20276;-70
2022/04/30 11:01:14;;;;;;;3.38;3.13;;;20.50;58.70;;;;;;4973759;28;20264;-70
2022/04/30 11:03:48;;;;;;;4.50;4.10;;;20.50;58.70;;;;;;4956766;28;20200;-69
2022/04/30 11:06:33;;;;;;;3.70;3.30;;;20.50;58.70;;;;;;4956668;28;20204;-69
2022/04/30 11:09:06;;;;;;;4.13;3.75;;;20.50;58.70;;;;;;4956497;28;20229;-70
2022/04/30 11:11:34;;;;;;;3.35;3.05;;;20.60;58.80;;;;;;4956558;28;20209;-70
2022/04/30 11:14:07;;;;;;;3.00;2.80;;;20.60;58.80;;;;;;4956671;28;20256;-70
2022/04/30 11:16:51;;;;;;;3.35;3.05;;;20.50;58.70;;;;;;4956699;28;20177;-70
2022/04/30 11:19:20;;;;;;;2.42;2.22;;;20.60;58.80;;;;;;4956482;28;20173;-70
2022/04/30 11:21:53;;;;;;;3.17;2.88;;;20.60;58.80;;;;;;4956745;28;20182;-69
2022/04/30 11:24:29;;;;;;;3.10;2.90;;;20.60;58.80;;;;;;4940743;28;20186;-70
2022/04/30 11:27:03;;;;;;;3.15;2.95;;;20.60;58.80;;;;;;4956102;28;20260;-67
2022/04/30 11:29:30;;;;;;;3.85;3.55;;;20.60;58.70;;;;;;4972438;28;20240;-69
2022/04/30 11:31:58;;;;;;;4.32;3.95;;;20.60;58.70;;;;;;4956173;28;20185;-67
2022/04/30 11:34:25;;;;;;;3.47;3.17;;;20.60;58.60;;;;;;4973356;28;20264;-67
2022/04/30 11:36:54;;;;;;;3.60;3.30;;;20.60;58.70;;;;;;4973487;28;20178;-69
2022/04/30 11:39:21;;;;;;;3.80;3.50;;;20.60;58.70;;;;;;4956305;28;20189;-69
2022/04/30 11:41:52;;;;;;;3.78;2.80;;;20.60;58.70;;;;;;4940345;28;20189;-69
2022/04/30 11:44:24;;;;;;;2.80;2.60;;;20.60;58.70;;;;;;4956395;28;20188;-69
2022/04/30 11:46:53;;;;;;;2.50;2.30;;;20.70;58.80;;;;;;4955996;28;20217;-69
2022/04/30 11:49:25;;;;;;;2.60;2.40;;;20.70;58.70;;;;;;4956233;28;20189;-69
2022/04/30 11:51:55;;;;;;;3.03;2.58;;;20.70;58.70;;;;;;4940268;28;20181;-70
2022/04/30 11:54:26;;;;;;;2.72;2.53;;;20.70;58.60;;;;;;4956272;28;20182;-70
2022/04/30 11:56:52;;;;;;;2.70;2.50;;;20.70;58.70;;;;;;4955962;28;20185;-70
2022/04/30 11:59:46;;;;;;;2.67;2.47;;;20.70;58.70;;;;;;4956215;28;20201;-70
2022/04/30 12:02:14;;;;;;;2.80;2.53;;;20.70;58.60;;;;;;4956494;28;20186;-68
2022/04/30 12:04:42;;;;;;;3.13;2.92;;;20.70;58.80;;;;;;4940632;28;20570;-68
2022/04/30 12:07:10;;;;;;;2.72;2.53;;;20.70;58.60;;;;;;4955806;28;20719;-69
2022/04/30 12:09:38;;;;;;;2.90;2.70;;;20.70;58.60;;;;;;4956024;28;20239;-70
2022/04/30 12:12:21;;;;;;;2.60;2.40;;;20.70;58.70;;;;;;4956079;28;20181;-70
2022/04/30 12:14:56;;;;;;;2.72;2.40;;;20.70;58.60;;;;;;4956244;28;20553;-70
2022/04/30 12:17:32;;;;;;;3.50;2.53;;;20.70;58.70;;;;;;4972234;28;20192;-69
2022/04/30 12:26:05;;;;;;;2.70;2.50;;;20.70;58.70;;;;;;4955600;28;20240;-70
2022/04/30 12:28:49;;;;;;;2.60;2.40;;;20.70;58.50;;;;;;4972982;28;20246;-70
2022/04/30 12:31:16;;;;;;;2.58;2.38;;;20.70;58.50;;;;;;4955655;28;20249;-70
2022/04/30 12:33:48;;;;;;;2.30;2.20;;;20.70;58.60;;;;;;4955956;28;20198;-70
2022/04/30 12:36:16;;;;;;;2.72;2.25;;;20.70;58.50;;;;;;4939896;28;20182;-70
2022/04/30 12:38:55;;;;;;;2.38;2.17;;;20.70;58.50;;;;;;4956213;28;20257;-70
2022/04/30 12:41:22;;;;;;;2.60;2.40;;;20.70;58.50;;;;;;4955985;28;20214;-70
2022/04/30 12:43:49;;;;;;;2.33;2.03;;;20.70;58.50;;;;;;4955591;28;20190;-68
2022/04/30 12:46:23;;;;;;;2.47;2.33;;;20.70;58.50;;;;;;4955339;28;20222;-69
2022/04/30 12:48:50;;;;;;;3.50;2.78;;;20.70;58.50;;;;;;4940094;28;20174;-70
2022/04/30 12:51:17;;;;;;;2.13;2.03;;;20.80;58.70;;;;;;4926884;28;20296;-70
2022/04/30 12:53:43;;;;;;;2.33;2.13;;;20.70;58.60;;;;;;4959157;28;20213;-69
2022/04/30 12:56:09;;;;;;;2.28;2.13;;;20.70;58.50;;;;;;4959171;28;20217;-69
2022/04/30 12:58:35;;;;;;;3.63;2.45;;;20.80;58.60;;;;;;4959234;28;20189;-70
2022/04/30 13:01:01;;;;;;;2.30;2.20;;;20.80;58.60;;;;;;4958671;28;20221;-69
2022/04/30 13:03:28;;;;;;;2.28;2.13;;;20.80;58.50;;;;;;4976247;28;20248;-70
2022/04/30 13:05:54;;;;;;;2.30;2.10;;;20.80;58.50;;;;;;4974688;28;20189;-69
2022/04/30 13:08:22;;;;;;;2.20;2.00;;;20.80;58.40;;;;;;4959022;28;20238;-69
2022/04/30 13:13:31;;;;;;;3.47;2.53;;;20.80;58.40;;;;;;4976137;28;20185;-69
2022/04/30 13:16:09;;;;;;;2.13;2.00;;;20.80;58.50;;;;;;4958563;28;20177;-69
2022/04/30 13:18:36;;;;;;;2.20;2.10;;;20.60;56.50;;;;;;4974679;28;20192;-70
2022/04/30 13:21:03;;;;;;;1.95;1.85;;;20.40;55.30;;;;;;4950501;28;20202;-69
2022/04/30 13:23:30;;;;;;;2.40;2.20;;;20.50;58.30;;;;;;4958649;28;20182;-70
2022/04/30 13:25:56;;;;;;;2.55;2.45;;;20.60;58.70;;;;;;4958310;28;20189;-69
2022/04/30 13:28:22;;;;;;;3.88;2.53;;;20.60;58.40;;;;;;4958380;28;20288;-69
2022/04/30 13:30:47;;;;;;;2.83;2.63;;;20.60;58.10;;;;;;4974389;28;20289;-70
2022/04/30 13:33:13;;;;;;;3.20;2.20;;;20.70;58.20;;;;;;4958437;28;20626;-70